createdAt,value
2023-09-25T00:02:08.983Z,0.50
2023-09-25T00:04:36.937Z,0.60
2023-09-25T00:07:05.380Z,0.70
2023-09-25T00:09:33.107Z,0.63
2023-09-25T00:12:01.036Z,0.90
2023-09-25T00:14:30.590Z,0.50
2023-09-25T00:16:58.958Z,0.73
2023-09-25T00:19:28.120Z,0.60
2023-09-25T00:21:55.994Z,0.57
2023-09-25T00:24:24.030Z,0.60
2023-09-25T00:26:51.884Z,0.73
2023-09-25T00:29:19.711Z,0.70
2023-09-25T00:31:47.371Z,0.80
2023-09-25T00:34:15.731Z,0.50
2023-09-25T00:36:45.272Z,0.77
2023-09-25T00:39:13.156Z,0.77
2023-09-25T00:41:41.041Z,1.03
2023-09-25T00:44:08.985Z,0.60
2023-09-25T00:46:37.212Z,0.40
2023-09-25T00:49:05.558Z,0.60
2023-09-25T00:51:33.359Z,0.57
2023-09-25T00:54:03.299Z,0.70
2023-09-25T00:56:31.210Z,0.70
2023-09-25T00:58:59.364Z,0.60
2023-09-25T01:01:27.655Z,0.60
2023-09-25T01:03:55.403Z,0.50
2023-09-25T01:06:23.500Z,0.73
2023-09-25T01:08:51.455Z,0.73
2023-09-25T01:11:20.848Z,0.63
2023-09-25T01:13:48.655Z,0.80
2023-09-25T01:16:16.462Z,0.50
2023-09-25T01:18:44.609Z,0.60
2023-09-25T01:21:12.586Z,0.63
2023-09-25T01:23:41.780Z,0.50
2023-09-25T01:26:09.480Z,0.70
2023-09-25T01:28:38.019Z,0.87
2023-09-25T01:31:08.418Z,0.60
2023-09-25T01:33:37.006Z,0.73
2023-09-25T01:36:05.265Z,0.47
2023-09-25T01:38:33.448Z,0.60
2023-09-25T01:41:02.640Z,0.50
2023-09-25T01:43:30.397Z,0.83
2023-09-25T01:45:58.383Z,0.53
2023-09-25T01:48:26.680Z,0.33
2023-09-25T01:50:54.414Z,0.67
2023-09-25T01:53:22.331Z,0.50
2023-09-25T01:55:50.593Z,0.73
2023-09-25T01:58:19.639Z,0.70
2023-09-25T02:00:47.461Z,0.80
2023-09-25T02:03:15.361Z,0.77
2023-09-25T02:05:46.141Z,0.57
2023-09-25T02:08:14.838Z,0.60
2023-09-25T02:10:42.625Z,0.50
2023-09-25T02:13:10.441Z,0.50
2023-09-25T02:15:39.557Z,0.57
2023-09-25T02:18:09.839Z,0.70
2023-09-25T02:20:37.677Z,0.70
2023-09-25T02:23:05.565Z,0.50
2023-09-25T02:25:33.469Z,0.83
2023-09-25T02:28:01.372Z,0.50
2023-09-25T02:30:29.146Z,0.50
2023-09-25T02:32:58.665Z,0.60
2023-09-25T02:35:26.525Z,0.90
2023-09-25T02:37:54.165Z,0.50
2023-09-25T02:40:21.961Z,0.57
2023-09-25T02:42:49.765Z,0.60
2023-09-25T02:45:18.376Z,0.50
2023-09-25T02:47:46.750Z,0.60
2023-09-25T02:50:16.880Z,0.60
2023-09-25T02:52:45.637Z,0.60
2023-09-25T02:55:14.381Z,0.80
2023-09-25T02:57:42.281Z,0.43
2023-09-25T03:00:12.430Z,0.60
2023-09-25T03:02:40.951Z,0.67
2023-09-25T03:05:09.442Z,0.43
2023-09-25T03:07:39.931Z,0.63
2023-09-25T03:10:08.641Z,0.70
2023-09-25T03:12:36.362Z,0.77
2023-09-25T03:15:06.590Z,0.40
2023-09-25T03:17:34.574Z,0.40
2023-09-25T03:20:04.301Z,0.40
2023-09-25T03:22:31.943Z,0.50
2023-09-25T03:25:01.150Z,0.60
2023-09-25T03:27:29.136Z,0.60
2023-09-25T03:29:56.895Z,0.67
2023-09-25T03:32:24.698Z,0.87
2023-09-25T03:34:52.534Z,0.60
2023-09-25T03:37:21.653Z,0.67
2023-09-25T03:39:49.497Z,0.73
2023-09-25T03:42:18.673Z,0.60
2023-09-25T03:44:46.418Z,0.60
2023-09-25T03:47:14.112Z,0.30
2023-09-25T03:49:43.634Z,0.77
2023-09-25T03:52:11.375Z,0.90
2023-09-25T03:54:39.813Z,0.63
2023-09-25T03:57:07.713Z,0.77
2023-09-25T03:59:36.838Z,0.73
2023-09-25T04:02:04.753Z,0.50
2023-09-25T04:04:32.574Z,0.67
2023-09-25T04:07:00.470Z,0.60
2023-09-25T04:09:28.187Z,0.60
2023-09-25T04:11:56.204Z,0.80
2023-09-25T04:14:23.998Z,0.43
2023-09-25T04:16:55.653Z,0.50
2023-09-25T04:19:23.437Z,0.57
2023-09-25T04:21:53.533Z,0.60
2023-09-25T04:24:21.295Z,0.53
2023-09-25T04:26:49.362Z,0.67
2023-09-25T04:29:19.219Z,0.60
2023-09-25T04:31:48.526Z,0.40
2023-09-25T04:34:17.766Z,0.50
2023-09-25T04:36:47.274Z,0.90
2023-09-25T04:39:17.975Z,0.70
2023-09-25T04:41:46.366Z,0.70
2023-09-25T04:44:14.211Z,1.20
2023-09-25T04:46:42.067Z,0.60
2023-09-25T04:49:10.034Z,0.67
2023-09-25T04:51:39.145Z,0.70
2023-09-25T04:54:07.537Z,0.70
2023-09-25T04:56:35.291Z,0.60
2023-09-25T04:59:03.022Z,0.80
2023-09-25T05:01:30.946Z,0.57
2023-09-25T05:03:58.820Z,0.70
2023-09-25T05:06:27.281Z,0.80
2023-09-25T05:08:56.573Z,0.63
2023-09-25T05:11:24.261Z,0.73
2023-09-25T05:13:51.996Z,0.93
2023-09-25T05:16:20.081Z,0.83
2023-09-25T05:18:48.103Z,0.77
2023-09-25T05:21:16.024Z,0.80
2023-09-25T05:23:46.026Z,1.00
2023-09-25T05:26:15.284Z,0.60
2023-09-25T05:28:43.101Z,0.87
2023-09-25T05:31:10.869Z,0.40
2023-09-25T05:33:38.813Z,0.87
2023-09-25T05:36:07.309Z,0.80
2023-09-25T05:38:35.193Z,0.70
2023-09-25T05:41:02.906Z,0.87
2023-09-25T05:43:32.024Z,1.00
2023-09-25T05:45:59.917Z,0.70
2023-09-25T05:48:27.705Z,0.53
2023-09-25T05:50:55.443Z,0.60
2023-09-25T05:53:26.862Z,1.00
2023-09-25T05:55:54.644Z,0.77
2023-09-25T05:58:22.493Z,1.43
2023-09-25T06:00:51.688Z,1.00
2023-09-25T06:03:19.669Z,0.70
2023-09-25T06:05:47.660Z,1.10
2023-09-25T06:08:15.512Z,0.70
2023-09-25T06:10:45.471Z,0.80
2023-09-25T06:13:13.265Z,0.60
2023-09-25T06:15:44.361Z,0.70
2023-09-25T06:18:13.590Z,0.77
2023-09-25T06:20:44.731Z,0.63
2023-09-25T06:23:12.459Z,0.73
2023-09-25T06:25:40.114Z,0.70
2023-09-25T06:28:09.516Z,0.90
2023-09-25T06:30:37.853Z,0.70
2023-09-25T06:33:08.104Z,0.80
2023-09-25T06:35:37.414Z,0.70
2023-09-25T06:38:05.569Z,0.50
2023-09-25T06:40:33.299Z,0.70
2023-09-25T06:43:00.982Z,0.77
2023-09-25T06:45:28.775Z,0.50
2023-09-25T06:47:56.547Z,0.67
2023-09-25T06:50:24.864Z,0.95
2023-09-25T06:52:54.134Z,0.60
2023-09-25T06:55:21.797Z,0.63
2023-09-25T06:57:49.566Z,1.02
2023-09-25T07:00:19.103Z,0.68
2023-09-25T07:02:47.622Z,0.65
2023-09-25T07:05:16.039Z,0.60
2023-09-25T07:07:43.986Z,0.70
2023-09-25T07:10:14.037Z,0.88
2023-09-25T07:12:42.067Z,0.80
2023-09-25T07:15:11.062Z,0.80
2023-09-25T07:17:38.946Z,0.60
2023-09-25T07:20:07.950Z,0.65
2023-09-25T07:22:35.784Z,0.50
2023-09-25T07:25:03.526Z,0.73
2023-09-25T07:27:32.859Z,0.60
2023-09-25T07:30:02.643Z,0.80
2023-09-25T07:32:30.803Z,0.60
2023-09-25T07:34:59.380Z,0.57
2023-09-25T07:37:27.578Z,0.85
2023-09-25T07:39:55.424Z,0.57
2023-09-25T07:42:23.277Z,0.60
2023-09-25T07:44:52.387Z,0.75
2023-09-25T07:47:20.376Z,0.60
2023-09-25T07:49:48.740Z,0.80
2023-09-25T07:52:21.281Z,1.00
2023-09-25T07:54:50.771Z,0.75
2023-09-25T07:57:20.477Z,0.75
2023-09-25T07:59:48.704Z,0.70
2023-09-25T08:02:20.914Z,0.68
2023-09-25T08:04:50.378Z,0.70
2023-09-25T08:07:19.778Z,0.80
2023-09-25T08:09:47.888Z,0.90
2023-09-25T08:12:15.802Z,0.70
2023-09-25T08:14:43.574Z,0.93
2023-09-25T08:17:11.290Z,0.60
2023-09-25T08:19:40.644Z,0.73
2023-09-25T08:22:08.928Z,0.77
2023-09-25T08:24:36.694Z,0.70
2023-09-25T08:27:05.892Z,0.93
2023-09-25T08:29:33.744Z,0.70
2023-09-25T08:32:02.145Z,1.08
2023-09-25T08:34:29.964Z,0.75
2023-09-25T08:36:59.023Z,1.02
2023-09-25T08:39:27.018Z,0.80
2023-09-25T08:41:55.226Z,0.82
2023-09-25T08:44:23.466Z,0.70
2023-09-25T08:46:52.498Z,0.70
2023-09-25T08:49:20.923Z,0.70
2023-09-25T08:51:48.715Z,0.63
2023-09-25T08:54:19.181Z,0.63
2023-09-25T08:56:48.685Z,0.80
2023-09-25T08:59:17.454Z,0.60
2023-09-25T09:01:45.325Z,0.73
2023-09-25T09:04:13.065Z,0.57
2023-09-25T09:06:41.909Z,0.68
2023-09-25T09:09:10.845Z,0.80
2023-09-25T09:11:40.555Z,0.90
2023-09-25T09:14:08.235Z,0.70
2023-09-25T09:16:35.987Z,0.82
2023-09-25T09:19:09.958Z,0.70
2023-09-25T09:21:37.853Z,0.80
2023-09-25T09:24:09.307Z,0.70
2023-09-25T09:26:38.543Z,0.50
2023-09-25T09:29:15.002Z,0.52
2023-09-25T09:31:43.432Z,0.85
2023-09-25T09:34:11.287Z,0.52
2023-09-25T09:36:39.138Z,0.70
2023-09-25T09:39:12.030Z,0.95
2023-09-25T09:41:42.773Z,0.52
2023-09-25T09:44:11.949Z,0.45
2023-09-25T09:46:43.156Z,1.00
2023-09-25T09:49:14.454Z,0.73
2023-09-25T09:51:45.714Z,0.73
2023-09-25T09:54:14.629Z,0.82
2023-09-25T09:56:43.068Z,0.60
2023-09-25T09:59:12.252Z,0.95
2023-09-25T10:01:43.223Z,0.70
2023-09-25T10:04:12.817Z,0.57
2023-09-25T10:06:50.124Z,0.68
2023-09-25T10:09:18.047Z,0.60
2023-09-25T10:11:48.365Z,0.60
2023-09-25T10:14:22.048Z,0.70
2023-09-25T10:16:59.673Z,0.80
2023-09-25T10:19:55.269Z,0.80
2023-09-25T10:22:25.344Z,0.68
2023-09-25T10:25:03.778Z,0.70
2023-09-25T10:27:33.099Z,0.90
2023-09-25T10:30:09.853Z,0.60
2023-09-25T10:32:42.874Z,0.45
2023-09-25T10:35:39.137Z,0.60
2023-09-25T10:38:30.051Z,0.50
2023-09-25T10:41:02.571Z,0.50
2023-09-25T10:43:30.584Z,0.55
2023-09-25T10:45:59.845Z,0.68
2023-09-25T10:48:28.878Z,0.57
2023-09-25T10:50:57.007Z,0.60
2023-09-25T10:53:24.856Z,0.70
2023-09-25T10:55:53.038Z,0.43
2023-09-25T10:58:22.768Z,0.95
2023-09-25T11:00:52.340Z,0.75
2023-09-25T11:03:21.870Z,0.70
2023-09-25T11:05:49.879Z,0.60
2023-09-25T11:08:18.067Z,0.80
2023-09-25T11:10:47.885Z,0.68
2023-09-25T11:13:16.213Z,0.50
2023-09-25T11:15:45.495Z,0.60
2023-09-25T11:18:14.289Z,0.57
2023-09-25T11:20:44.780Z,0.73
2023-09-25T11:23:21.485Z,0.80
2023-09-25T11:25:52.188Z,0.50
2023-09-25T11:28:21.806Z,0.60
2023-09-25T11:30:51.054Z,0.57
2023-09-25T11:33:21.094Z,0.80
2023-09-25T11:35:53.097Z,0.50
2023-09-25T11:38:23.490Z,0.50
2023-09-25T11:40:52.381Z,0.45
2023-09-25T11:43:20.769Z,0.68
2023-09-25T11:45:49.769Z,0.57
2023-09-25T11:48:19.595Z,0.47
2023-09-25T11:50:48.161Z,0.68
2023-09-25T11:53:17.732Z,0.57
2023-09-25T11:55:45.627Z,0.50
2023-09-25T11:58:13.884Z,0.73
2023-09-25T12:00:41.664Z,0.60
2023-09-25T12:03:10.308Z,0.50
2023-09-25T12:05:38.483Z,0.50
2023-09-25T12:08:07.562Z,0.60
2023-09-25T12:10:39.993Z,0.50
2023-09-25T12:13:08.466Z,0.60
2023-09-25T12:15:37.310Z,0.65
2023-09-25T12:18:06.030Z,0.70
2023-09-25T12:20:34.241Z,0.50
2023-09-25T12:23:02.058Z,0.57
2023-09-25T12:25:33.200Z,0.50
2023-09-25T12:28:02.453Z,0.50
2023-09-25T12:30:30.528Z,0.57
2023-09-25T12:32:58.251Z,0.73
2023-09-25T12:35:26.280Z,0.57
2023-09-25T12:37:56.805Z,0.50
2023-09-25T12:40:24.691Z,0.32
2023-09-25T12:42:55.958Z,0.70
2023-09-25T12:45:25.825Z,0.95
2023-09-25T12:47:53.998Z,0.50
2023-09-25T12:50:22.285Z,0.75
2023-09-25T12:52:50.138Z,0.57
2023-09-25T12:55:18.012Z,0.60
2023-09-25T12:57:45.805Z,0.63
2023-09-25T13:00:14.941Z,0.57
2023-09-25T13:02:44.121Z,0.75
2023-09-25T13:05:12.709Z,0.63
2023-09-25T13:07:40.527Z,0.40
2023-09-25T13:10:09.006Z,0.40
2023-09-25T13:12:38.275Z,0.47
2023-09-25T13:15:10.003Z,0.75
2023-09-25T13:17:38.088Z,0.60
2023-09-25T13:20:10.947Z,0.50
2023-09-25T13:22:39.930Z,0.70
2023-09-25T13:25:08.838Z,0.60
2023-09-25T13:27:38.134Z,0.40
2023-09-25T13:30:12.751Z,0.73
2023-09-25T13:32:40.810Z,0.63
2023-09-25T13:35:11.073Z,0.50
2023-09-25T13:37:38.821Z,0.70
2023-09-25T13:40:08.033Z,0.57
2023-09-25T13:42:35.920Z,0.50
2023-09-25T13:45:03.973Z,0.52
2023-09-25T13:47:34.829Z,0.65
2023-09-25T13:50:02.809Z,0.60
2023-09-25T13:52:31.988Z,0.60
2023-09-25T13:54:59.774Z,0.50
2023-09-25T13:57:27.539Z,0.73
2023-09-25T13:59:55.196Z,0.40
2023-09-25T14:02:24.073Z,0.55
2023-09-25T14:04:52.209Z,0.60
2023-09-25T14:07:21.199Z,0.47
2023-09-25T14:09:50.387Z,0.50
2023-09-25T14:12:18.151Z,0.60
2023-09-25T14:14:48.881Z,0.80
2023-09-25T14:17:16.726Z,0.50
2023-09-25T14:19:44.433Z,0.50
2023-09-25T14:22:12.223Z,0.60
2023-09-25T14:24:40.112Z,0.50
2023-09-25T14:27:11.187Z,0.60
2023-09-25T14:29:39.612Z,0.85
2023-09-25T14:32:08.514Z,0.55
2023-09-25T14:34:36.931Z,0.60
2023-09-25T14:37:04.665Z,0.65
2023-09-25T14:39:32.736Z,0.75
2023-09-25T14:42:01.107Z,0.47
2023-09-25T14:44:30.229Z,0.60
2023-09-25T14:46:58.138Z,0.90
2023-09-25T14:49:26.232Z,0.50
2023-09-25T14:51:54.320Z,0.90
2023-09-25T14:54:22.229Z,0.77
2023-09-25T14:56:49.971Z,0.70
2023-09-25T14:59:18.006Z,0.50
2023-09-25T15:01:50.319Z,0.70
2023-09-25T15:04:20.441Z,0.80
2023-09-25T15:06:50.344Z,0.90
2023-09-25T15:09:19.537Z,0.80
2023-09-25T15:11:47.222Z,0.57
2023-09-25T15:14:15.709Z,0.75
2023-09-25T15:16:43.743Z,0.60
2023-09-25T15:19:12.969Z,0.77
2023-09-25T15:21:41.154Z,0.65
2023-09-25T15:24:09.494Z,0.60
2023-09-25T15:26:37.276Z,0.80
2023-09-25T15:29:05.196Z,0.75
2023-09-25T15:31:33.092Z,0.70
2023-09-25T15:34:01.173Z,0.63
2023-09-25T15:36:30.630Z,0.80
2023-09-25T15:38:58.739Z,0.75
2023-09-25T15:41:26.570Z,0.70
2023-09-25T15:43:54.255Z,0.70
2023-09-25T15:46:22.909Z,0.70
2023-09-25T15:48:51.527Z,0.70
2023-09-25T15:51:19.393Z,0.75
2023-09-25T15:53:48.596Z,0.50
2023-09-25T15:56:16.498Z,0.50
2023-09-25T15:58:44.395Z,0.77
2023-09-25T16:01:12.216Z,0.60
2023-09-25T16:03:40.187Z,0.68
2023-09-25T16:06:08.182Z,0.70
2023-09-25T16:08:36.094Z,0.60
2023-09-25T16:11:05.146Z,0.60
2023-09-25T16:13:33.752Z,0.73
2023-09-25T16:16:01.489Z,0.50
2023-09-25T16:18:29.352Z,0.70
2023-09-25T16:21:03.535Z,0.43
2023-09-25T16:23:31.621Z,0.65
2023-09-25T16:25:59.418Z,0.43
2023-09-25T16:28:28.487Z,0.57
2023-09-25T16:30:56.293Z,0.68
2023-09-25T16:33:24.000Z,0.70
2023-09-25T16:35:51.708Z,0.57
2023-09-25T16:38:19.444Z,0.60
2023-09-25T16:40:49.259Z,0.50
2023-09-25T16:43:16.996Z,0.98
2023-09-25T16:45:46.083Z,0.40
2023-09-25T16:48:13.991Z,0.70
2023-09-25T16:50:41.792Z,0.63
2023-09-25T16:53:09.527Z,0.80
2023-09-25T16:55:37.276Z,0.90
2023-09-25T16:58:05.994Z,0.73
2023-09-25T17:00:34.097Z,0.77
2023-09-25T17:03:03.312Z,0.70
2023-09-25T17:05:32.703Z,0.80
2023-09-25T17:08:00.782Z,0.60
2023-09-25T17:10:32.014Z,0.70
2023-09-25T17:13:00.187Z,0.80
2023-09-25T17:15:35.076Z,0.68
2023-09-25T17:18:04.510Z,0.90
2023-09-25T17:20:32.241Z,0.57
2023-09-25T17:23:00.153Z,0.90
2023-09-25T17:25:27.900Z,0.60
2023-09-25T17:27:55.811Z,0.70
2023-09-25T17:30:24.843Z,0.88
2023-09-25T17:32:52.705Z,0.85
2023-09-25T17:35:22.757Z,0.60
2023-09-25T17:37:50.537Z,0.80
2023-09-25T17:40:19.261Z,0.75
2023-09-25T17:42:47.720Z,0.60
2023-09-25T17:45:15.652Z,0.85
2023-09-25T17:47:43.387Z,0.60
2023-09-25T17:50:11.536Z,0.77
2023-09-25T17:52:43.856Z,0.88
2023-09-25T17:55:11.940Z,0.82
2023-09-25T17:57:39.755Z,0.70
2023-09-25T18:00:10.098Z,0.88
2023-09-25T18:02:37.997Z,0.85
2023-09-25T18:05:07.606Z,0.88
2023-09-25T18:07:36.035Z,1.05
2023-09-25T18:10:07.246Z,0.80
2023-09-25T18:12:37.708Z,0.65
2023-09-25T18:15:09.321Z,0.80
2023-09-25T18:17:37.094Z,1.00
2023-09-25T18:20:05.590Z,0.75
2023-09-25T18:22:35.029Z,0.93
2023-09-25T18:25:03.217Z,1.02
2023-09-25T18:27:32.497Z,0.70
2023-09-25T18:30:00.231Z,1.02
2023-09-25T18:32:28.058Z,1.17
2023-09-25T18:34:55.786Z,1.23
2023-09-25T18:37:23.676Z,0.75
2023-09-25T18:39:51.466Z,0.70
2023-09-25T18:42:19.290Z,0.80
2023-09-25T18:44:48.554Z,0.75
2023-09-25T18:47:16.257Z,0.88
2023-09-25T18:49:44.540Z,1.02
2023-09-25T18:52:12.600Z,0.90
2023-09-25T18:54:40.467Z,0.70
2023-09-25T18:57:08.156Z,1.00
2023-09-25T18:59:37.826Z,1.10
2023-09-25T19:02:07.189Z,1.08
2023-09-25T19:04:35.014Z,0.90
2023-09-25T19:07:02.756Z,0.80
2023-09-25T19:09:30.921Z,0.80
2023-09-25T19:11:58.640Z,1.00
2023-09-25T19:14:26.390Z,0.80
2023-09-25T19:16:54.751Z,0.98
2023-09-25T19:19:23.936Z,1.00
2023-09-25T19:21:51.599Z,1.10
2023-09-25T19:24:19.363Z,0.73
2023-09-25T19:26:47.891Z,0.95
2023-09-25T19:29:15.599Z,0.90
2023-09-25T19:31:46.142Z,0.80
2023-09-25T19:34:15.154Z,1.08
2023-09-25T19:36:44.304Z,0.82
2023-09-25T19:39:12.270Z,1.25
2023-09-25T19:41:40.210Z,0.87
2023-09-25T19:44:08.398Z,0.80
2023-09-25T19:46:37.454Z,1.00
2023-09-25T19:49:05.946Z,1.10
2023-09-25T19:51:35.356Z,1.13
2023-09-25T19:54:05.116Z,0.90
2023-09-25T19:56:33.180Z,0.93
2023-09-25T19:59:01.392Z,0.80
2023-09-25T20:01:30.152Z,1.00
2023-09-25T20:03:58.276Z,0.83
2023-09-25T20:06:27.656Z,1.00
2023-09-25T20:08:56.122Z,0.90
2023-09-25T20:11:25.419Z,0.82
2023-09-25T20:13:53.295Z,1.10
2023-09-25T20:16:21.384Z,0.87
2023-09-25T20:18:49.467Z,1.00
2023-09-25T20:21:17.284Z,1.38
2023-09-25T20:23:45.018Z,1.20
2023-09-25T20:26:12.962Z,0.93
2023-09-25T20:28:42.396Z,1.20
2023-09-25T20:31:10.178Z,1.20
2023-09-25T20:33:38.161Z,1.00
2023-09-25T20:36:06.512Z,1.20
2023-09-25T20:38:34.423Z,0.77
2023-09-25T20:41:02.501Z,1.10
2023-09-25T20:43:30.364Z,1.13
2023-09-25T20:45:59.626Z,1.00
2023-09-25T20:48:27.391Z,1.13
2023-09-25T20:50:55.205Z,0.83
2023-09-25T20:53:23.049Z,1.35
2023-09-25T20:55:50.719Z,1.13
2023-09-25T20:58:18.572Z,1.10
2023-09-25T21:00:46.343Z,1.00
2023-09-25T21:03:16.193Z,1.10
2023-09-25T21:05:43.972Z,0.98
2023-09-25T21:08:11.699Z,1.43
2023-09-25T21:10:39.503Z,1.57
2023-09-25T21:13:07.451Z,1.80
2023-09-25T21:15:35.167Z,1.20
2023-09-25T21:18:03.005Z,1.55
2023-09-25T21:20:32.157Z,1.23
2023-09-25T21:22:59.969Z,1.73
2023-09-25T21:25:27.850Z,1.33
2023-09-25T21:27:55.685Z,1.70
2023-09-25T21:30:23.557Z,1.47
2023-09-25T21:32:51.319Z,1.67
2023-09-25T21:35:19.146Z,1.40
2023-09-25T21:37:48.226Z,1.57
2023-09-25T21:40:16.404Z,1.40
2023-09-25T21:42:44.315Z,1.50
2023-09-25T21:45:12.388Z,1.60
2023-09-25T21:47:41.281Z,1.40
2023-09-25T21:50:09.811Z,1.27
2023-09-25T21:52:37.512Z,1.60
2023-09-25T21:55:08.659Z,1.77
2023-09-25T21:57:36.498Z,1.77
2023-09-25T22:00:05.134Z,1.50
2023-09-25T22:02:34.056Z,1.80
2023-09-25T22:05:01.926Z,1.60
2023-09-25T22:07:30.395Z,1.10
2023-09-25T22:09:58.452Z,1.40
2023-09-25T22:12:27.714Z,1.50
2023-09-25T22:14:55.477Z,1.27
2023-09-25T22:17:23.259Z,1.30
2023-09-25T22:19:52.371Z,1.40
2023-09-25T22:22:20.213Z,1.57
2023-09-25T22:24:48.138Z,1.90
2023-09-25T22:27:16.000Z,1.37
2023-09-25T22:29:45.143Z,1.40
2023-09-25T22:32:13.400Z,1.17
2023-09-25T22:34:41.210Z,1.50
2023-09-25T22:37:09.061Z,1.50
2023-09-25T22:39:37.319Z,1.43
2023-09-25T22:42:05.723Z,1.37
2023-09-25T22:44:34.273Z,1.37
2023-09-25T22:47:03.670Z,1.23
2023-09-25T22:49:31.668Z,1.33
2023-09-25T22:51:59.685Z,1.00
2023-09-25T22:54:27.366Z,1.00
2023-09-25T22:56:55.028Z,1.43
2023-09-25T22:59:22.892Z,1.00
2023-09-25T23:01:50.839Z,1.60
2023-09-25T23:04:20.231Z,0.90
2023-09-25T23:06:48.058Z,1.50
2023-09-25T23:09:16.036Z,1.50
2023-09-25T23:11:43.799Z,1.23
2023-09-25T23:14:11.589Z,1.37
2023-09-25T23:16:39.581Z,1.03
2023-09-25T23:19:08.172Z,1.37
2023-09-25T23:21:37.380Z,1.30
2023-09-25T23:24:05.405Z,1.20
2023-09-25T23:26:33.176Z,1.27
2023-09-25T23:29:01.079Z,1.10
2023-09-25T23:31:28.889Z,1.30
2023-09-25T23:33:56.641Z,1.33
2023-09-25T23:36:24.474Z,1.00
2023-09-25T23:38:53.921Z,1.50
2023-09-25T23:41:21.814Z,1.10
2023-09-25T23:43:49.854Z,1.00
2023-09-25T23:46:18.034Z,1.30
2023-09-25T23:48:46.036Z,1.00
2023-09-25T23:51:13.744Z,1.60
2023-09-25T23:53:41.484Z,1.13
2023-09-25T23:56:10.637Z,1.20
2023-09-25T23:58:38.407Z,1.40
